Time;durP1;ratioP1;P1;durP2;ratioP2;P2;SDS_P1;SDS_P2;PMS_P1;PMS_P2;Temp;Humidity;BMP_temperature;BMP_pressure;BME280_temperature;BME280_humidity;BME280_pressure;Samples;Min_cycle;Max_cycle;Signal;HPM_P1;HPM_P2
2023/06/27 00:03:07;;;;;;;9.37;3.20;;;15.30;99.90;;;;;;5016744;28;20269;-42
2023/06/27 00:05:35;;;;;;;9.43;2.60;;;15.30;99.90;;;;;;5021306;28;20188;-41
2023/06/27 00:08:02;;;;;;;10.37;2.97;;;15.30;99.90;;;;;;5017907;28;20309;-41
2023/06/27 00:10:29;;;;;;;8.20;2.30;;;15.20;99.90;;;;;;5000327;28;20219;-42
2023/06/27 00:12:56;;;;;;;7.57;2.50;;;15.20;99.90;;;;;;5017908;28;20207;-43
2023/06/27 00:15:23;;;;;;;6.20;2.53;;;15.20;99.90;;;;;;5022217;28;20193;-47
2023/06/27 00:17:51;;;;;;;4.67;2.53;;;15.10;99.90;;;;;;5007761;28;20212;-41
2023/06/27 00:20:18;;;;;;;13.03;2.90;;;15.10;99.90;;;;;;5015482;28;20689;-42
2023/06/27 00:22:48;;;;;;;6.80;2.90;;;15.10;99.90;;;;;;5022842;28;20191;-43
2023/06/27 00:25:15;;;;;;;9.00;2.60;;;15.20;99.90;;;;;;5002412;28;20188;-45
2023/06/27 00:27:42;;;;;;;7.43;3.03;;;15.20;99.90;;;;;;5010250;28;20199;-41
2023/06/27 00:30:09;;;;;;;7.70;2.60;;;15.20;99.90;;;;;;5023379;28;20636;-46
2023/06/27 00:32:36;;;;;;;3.93;2.27;;;15.10;99.90;;;;;;5013807;28;23153;-41
2023/06/27 00:35:03;;;;;;;9.07;2.50;;;15.10;99.90;;;;;;5015195;28;20709;-45
2023/06/27 00:37:30;;;;;;;13.53;3.10;;;15.10;99.90;;;;;;5014861;28;20982;-42
2023/06/27 00:39:59;;;;;;;6.63;2.30;;;15.10;99.90;;;;;;5018594;28;20235;-41
2023/06/27 00:42:27;;;;;;;9.63;2.60;;;15.10;99.90;;;;;;4998407;28;20251;-44
2023/06/27 00:44:54;;;;;;;11.63;2.33;;;15.10;99.90;;;;;;5024312;28;20709;-44
2023/06/27 00:47:21;;;;;;;5.77;2.30;;;15.10;99.90;;;;;;5018759;28;20196;-43
2023/06/27 00:49:49;;;;;;;6.43;2.60;;;15.00;99.90;;;;;;5011285;28;20299;-44
2023/06/27 00:52:16;;;;;;;7.83;2.60;;;15.00;99.90;;;;;;5022977;28;20220;-45
2023/06/27 00:54:42;;;;;;;7.87;2.30;;;15.00;99.90;;;;;;5022837;28;20184;-42
2023/06/27 00:57:11;;;;;;;10.70;2.70;;;15.00;99.90;;;;;;5000300;28;20208;-45
2023/06/27 00:59:39;;;;;;;7.40;2.20;;;15.00;99.90;;;;;;5016895;28;20195;-42
2023/06/27 01:02:06;;;;;;;10.47;2.43;;;14.90;99.90;;;;;;5020129;28;20231;-41
2023/06/27 01:04:33;;;;;;;12.47;2.03;;;14.90;99.90;;;;;;5013022;28;20234;-43
2023/06/27 01:07:09;;;;;;;9.90;2.53;;;14.90;99.90;;;;;;5024517;28;20199;-43
2023/06/27 01:09:44;;;;;;;5.77;2.33;;;14.80;99.90;;;;;;5020909;28;20194;-43
2023/06/27 01:12:20;;;;;;;6.30;1.93;;;14.80;99.90;;;;;;4997943;28;20277;-43
2023/06/27 01:14:50;;;;;;;6.03;2.17;;;14.80;99.90;;;;;;5033080;28;20676;-45
2023/06/27 01:17:21;;;;;;;8.00;2.40;;;14.80;99.90;;;;;;5014002;28;20639;-47
2023/06/27 01:19:52;;;;;;;8.67;2.10;;;14.80;99.90;;;;;;5015084;28;20579;-42
2023/06/27 01:22:29;;;;;;;7.07;2.37;;;14.80;99.90;;;;;;5014444;28;20230;-44
2023/06/27 01:24:59;;;;;;;7.13;2.40;;;14.80;99.90;;;;;;5016822;28;20224;-46
2023/06/27 01:27:28;;;;;;;5.43;2.20;;;14.80;99.90;;;;;;4996507;28;20196;-43
2023/06/27 01:29:55;;;;;;;4.43;2.00;;;14.80;99.90;;;;;;5014415;28;20757;-43
2023/06/27 01:32:28;;;;;;;7.73;2.47;;;14.80;99.90;;;;;;5020717;28;20587;-46
2023/06/27 01:35:02;;;;;;;5.83;2.30;;;14.80;99.90;;;;;;5020078;28;20266;-43
2023/06/27 01:37:35;;;;;;;18.27;2.67;;;14.70;99.90;;;;;;5007457;28;20204;-41
2023/06/27 01:40:09;;;;;;;5.60;1.70;;;14.80;99.90;;;;;;5022487;28;20204;-43
2023/06/27 01:42:41;;;;;;;7.30;1.70;;;14.80;99.90;;;;;;5015772;28;20211;-42
2023/06/27 01:45:09;;;;;;;6.77;2.10;;;14.80;99.90;;;;;;5001363;28;20321;-43
2023/06/27 01:47:39;;;;;;;8.70;2.07;;;14.80;99.90;;;;;;5016617;28;20192;-42
2023/06/27 01:50:06;;;;;;;7.00;2.00;;;14.80;99.90;;;;;;5021595;28;20192;-43
2023/06/27 01:52:33;;;;;;;7.07;2.37;;;14.80;99.90;;;;;;5008683;28;20992;-43
2023/06/27 01:55:00;;;;;;;5.83;1.90;;;14.80;99.90;;;;;;5022463;28;20203;-43
2023/06/27 01:57:29;;;;;;;8.43;2.10;;;14.80;99.90;;;;;;5019323;28;20285;-41
2023/06/27 01:59:56;;;;;;;8.30;2.47;;;14.80;99.90;;;;;;4995724;28;20746;-43
2023/06/27 02:02:23;;;;;;;8.40;2.40;;;14.80;99.90;;;;;;5009850;28;20251;-44
2023/06/27 02:04:50;;;;;;;8.83;1.73;;;14.80;99.90;;;;;;5022573;28;20270;-45
2023/06/27 02:07:18;;;;;;;5.50;1.87;;;14.80;99.90;;;;;;5012510;28;20219;-42
2023/06/27 02:09:44;;;;;;;11.27;3.27;;;14.70;99.90;;;;;;5021914;28;20196;-41
2023/06/27 02:12:11;;;;;;;5.30;2.13;;;14.70;99.90;;;;;;5014674;28;20224;-42
2023/06/27 02:14:40;;;;;;;7.40;1.90;;;14.70;99.90;;;;;;5028864;28;20188;-42
2023/06/27 02:17:07;;;;;;;7.90;2.43;;;14.70;99.90;;;;;;5000057;28;20211;-43
2023/06/27 02:19:34;;;;;;;8.80;2.23;;;14.70;99.90;;;;;;5019350;28;20838;-41
2023/06/27 02:22:01;;;;;;;6.43;2.20;;;14.70;99.90;;;;;;5023401;28;20208;-41
2023/06/27 02:24:28;;;;;;;5.87;2.20;;;14.60;99.90;;;;;;4999168;28;20216;-43
2023/06/27 02:26:54;;;;;;;3.00;1.93;;;14.60;99.90;;;;;;5021036;28;20199;-43
2023/06/27 02:29:21;;;;;;;8.63;2.80;;;14.60;99.90;;;;;;5019172;28;20207;-43
2023/06/27 02:31:49;;;;;;;9.47;2.40;;;14.70;99.90;;;;;;4992887;28;20713;-43
2023/06/27 02:34:16;;;;;;;6.77;2.40;;;14.70;99.90;;;;;;5019377;28;20196;-45
2023/06/27 02:36:43;;;;;;;8.67;2.47;;;14.60;99.90;;;;;;5015742;28;20207;-44
2023/06/27 02:39:10;;;;;;;8.57;2.60;;;14.70;99.90;;;;;;5014991;28;20204;-44
2023/06/27 02:41:36;;;;;;;9.57;2.73;;;14.60;99.90;;;;;;5019091;28;20387;-44
2023/06/27 02:44:03;;;;;;;6.37;2.37;;;14.70;99.90;;;;;;5022579;28;20231;-41
2023/06/27 02:46:30;;;;;;;4.47;2.20;;;14.70;99.90;;;;;;4996116;28;20211;-44
2023/06/27 02:48:59;;;;;;;4.73;2.27;;;14.70;99.90;;;;;;5018077;28;20797;-43
2023/06/27 02:51:25;;;;;;;7.57;2.83;;;14.70;99.90;;;;;;5016517;28;20219;-44
2023/06/27 02:53:52;;;;;;;8.77;2.80;;;14.80;99.90;;;;;;5015494;28;20204;-43
2023/06/27 02:56:19;;;;;;;4.73;2.10;;;14.80;99.90;;;;;;5020354;28;20196;-45
2023/06/27 02:58:47;;;;;;;6.17;2.40;;;14.80;99.90;;;;;;5010526;28;20215;-43
2023/06/27 03:01:15;;;;;;;5.50;2.20;;;14.70;99.90;;;;;;5016633;28;20223;-45
2023/06/27 03:03:45;;;;;;;7.07;2.47;;;14.70;99.90;;;;;;4993448;28;20204;-43
2023/06/27 03:06:14;;;;;;;6.23;2.13;;;14.60;99.90;;;;;;5019844;28;20569;-46
2023/06/27 03:08:42;;;;;;;8.17;2.80;;;14.60;99.90;;;;;;5012635;28;20212;-42
2023/06/27 03:11:09;;;;;;;5.63;2.70;;;14.60;99.90;;;;;;5017282;28;20223;-44
2023/06/27 03:13:36;;;;;;;9.93;2.73;;;14.50;99.90;;;;;;5016729;28;20635;-44
2023/06/27 03:16:04;;;;;;;7.27;2.63;;;14.50;99.90;;;;;;5021328;28;20258;-43
2023/06/27 03:18:31;;;;;;;7.00;2.63;;;14.50;99.90;;;;;;4995993;28;20215;-43
2023/06/27 03:20:59;;;;;;;4.37;2.77;;;14.50;99.90;;;;;;5021224;28;20236;-46
2023/06/27 03:23:27;;;;;;;6.17;2.20;;;14.50;99.90;;;;;;5012426;28;20196;-41
2023/06/27 03:25:54;;;;;;;7.40;3.40;;;14.50;99.90;;;;;;5012849;28;20301;-47
2023/06/27 03:28:22;;;;;;;6.23;2.77;;;14.50;99.90;;;;;;5016943;28;20200;-44
2023/06/27 03:30:53;;;;;;;6.07;2.50;;;14.50;99.90;;;;;;5014385;28;20227;-41
2023/06/27 03:33:20;;;;;;;6.70;3.37;;;14.50;99.90;;;;;;5016546;28;20196;-43
2023/06/27 03:35:50;;;;;;;10.27;2.93;;;14.50;99.90;;;;;;4994943;28;20206;-41
2023/06/27 03:38:17;;;;;;;6.97;3.00;;;14.40;99.90;;;;;;5020091;28;20192;-42
2023/06/27 03:40:46;;;;;;;5.80;3.00;;;14.40;99.90;;;;;;5012174;28;20527;-41
2023/06/27 03:43:13;;;;;;;17.40;4.07;;;14.50;99.90;;;;;;5020740;28;20192;-43
2023/06/27 03:45:40;;;;;;;10.73;3.30;;;14.50;99.90;;;;;;5020471;28;20785;-42
2023/06/27 03:48:08;;;;;;;11.33;3.10;;;14.50;99.90;;;;;;5007191;28;20204;-46
2023/06/27 03:50:37;;;;;;;8.07;2.70;;;14.50;99.90;;;;;;5003250;28;20257;-43
2023/06/27 03:53:04;;;;;;;8.07;2.60;;;14.40;99.90;;;;;;5023214;28;20207;-46
2023/06/27 03:55:32;;;;;;;5.77;2.20;;;14.40;99.90;;;;;;5021139;28;20902;-41
2023/06/27 03:58:01;;;;;;;5.17;2.70;;;14.40;99.90;;;;;;5002204;28;20209;-44
2023/06/27 04:00:28;;;;;;;6.20;2.93;;;14.40;99.90;;;;;;5002848;28;20376;-44
2023/06/27 04:02:55;;;;;;;6.13;2.90;;;14.30;99.90;;;;;;5023932;28;20841;-44
2023/06/27 04:05:23;;;;;;;6.17;2.60;;;14.40;99.90;;;;;;5013318;28;21748;-43
2023/06/27 04:07:50;;;;;;;2.63;2.33;;;14.40;99.90;;;;;;5005781;28;20211;-42
2023/06/27 04:10:18;;;;;;;3.37;1.97;;;14.30;99.90;;;;;;5021291;28;20266;-46
2023/06/27 04:12:46;;;;;;;4.97;2.10;;;14.40;99.90;;;;;;5008363;28;20993;-41
2023/06/27 04:15:14;;;;;;;6.50;2.13;;;14.30;99.90;;;;;;5019071;28;20212;-43
2023/06/27 04:17:42;;;;;;;3.93;2.20;;;14.30;99.90;;;;;;5019089;28;20713;-40
2023/06/27 04:20:09;;;;;;;8.07;2.17;;;14.30;99.90;;;;;;5024120;28;20210;-41
2023/06/27 04:22:36;;;;;;;5.97;2.23;;;14.30;99.90;;;;;;4993692;28;20255;-43
2023/06/27 04:25:03;;;;;;;4.30;1.80;;;14.30;99.90;;;;;;5022237;28;20220;-41
2023/06/27 04:27:31;;;;;;;10.07;2.10;;;14.30;99.90;;;;;;5013417;28;20212;-41
2023/06/27 04:29:58;;;;;;;5.47;2.27;;;14.30;99.90;;;;;;5025517;28;20683;-42
2023/06/27 04:32:26;;;;;;;5.60;2.10;;;14.30;99.90;;;;;;5021324;28;20642;-42
2023/06/27 04:34:53;;;;;;;3.10;2.07;;;14.40;99.90;;;;;;5020163;28;20239;-44
2023/06/27 04:37:23;;;;;;;6.67;2.70;;;14.30;99.90;;;;;;4989518;28;20728;-42
2023/06/27 04:39:51;;;;;;;4.07;2.40;;;14.30;99.90;;;;;;5021765;28;20939;-41
2023/06/27 04:42:18;;;;;;;6.03;2.40;;;14.20;99.90;;;;;;5016412;28;20789;-42
2023/06/27 04:44:45;;;;;;;7.30;3.03;;;14.20;99.90;;;;;;5018359;28;20215;-41
2023/06/27 04:47:11;;;;;;;4.13;2.70;;;14.10;99.90;;;;;;5017062;28;20612;-40
2023/06/27 04:49:40;;;;;;;4.90;2.60;;;14.10;99.90;;;;;;5017707;28;20195;-44
2023/06/27 04:52:07;;;;;;;4.60;2.60;;;14.10;99.90;;;;;;5018152;28;20228;-48
2023/06/27 04:54:34;;;;;;;5.70;2.40;;;14.00;99.90;;;;;;5003049;28;20200;-42
2023/06/27 04:57:00;;;;;;;2.73;1.53;;;14.00;99.90;;;;;;5022691;28;20283;-43
2023/06/27 04:59:28;;;;;;;3.43;1.10;;;13.90;99.90;;;;;;5008215;28;20223;-45
2023/06/27 05:01:55;;;;;;;2.63;1.27;;;13.70;99.90;;;;;;5024121;28;20211;-43
2023/06/27 05:04:22;;;;;;;2.97;0.97;;;13.60;99.90;;;;;;5021649;28;20215;-45
2023/06/27 05:06:50;;;;;;;2.70;1.20;;;13.60;99.90;;;;;;5014200;28;20200;-43
2023/06/27 05:09:17;;;;;;;2.37;0.93;;;13.60;99.90;;;;;;4990905;28;20793;-44
2023/06/27 05:11:43;;;;;;;2.20;0.93;;;13.60;99.90;;;;;;5013559;28;20224;-44
2023/06/27 05:14:10;;;;;;;0.97;0.93;;;13.60;99.90;;;;;;5010580;28;20609;-41
2023/06/27 05:16:37;;;;;;;1.00;0.90;;;13.70;99.90;;;;;;5011639;28;20196;-43
2023/06/27 05:19:04;;;;;;;3.00;1.07;;;13.70;99.90;;;;;;5021490;28;20195;-45
2023/06/27 05:21:31;;;;;;;2.87;1.20;;;13.60;99.90;;;;;;5014741;28;20273;-43
2023/06/27 05:23:59;;;;;;;2.50;1.57;;;13.60;99.90;;;;;;4992447;28;20196;-46
2023/06/27 05:26:26;;;;;;;3.50;1.30;;;13.70;99.90;;;;;;5020041;28;20247;-47
2023/06/27 05:28:57;;;;;;;1.40;1.20;;;13.60;99.90;;;;;;5012549;28;22192;-45
2023/06/27 05:31:24;;;;;;;2.53;1.50;;;13.70;99.90;;;;;;5020563;28;20227;-42
2023/06/27 05:33:51;;;;;;;3.57;2.40;;;13.70;99.90;;;;;;5014367;28;21045;-43
2023/06/27 05:36:18;;;;;;;5.67;1.83;;;13.70;99.90;;;;;;5017742;28;20200;-43
2023/06/27 05:38:44;;;;;;;2.50;1.50;;;13.80;99.90;;;;;;4993900;28;20807;-43
2023/06/27 05:41:13;;;;;;;3.03;1.87;;;13.80;99.90;;;;;;5021190;28;20216;-41
2023/06/27 05:43:40;;;;;;;5.83;1.60;;;13.80;99.90;;;;;;5014447;28;20212;-43
2023/06/27 05:46:06;;;;;;;3.70;1.97;;;13.90;99.90;;;;;;5017616;28;20223;-44
2023/06/27 05:48:33;;;;;;;2.53;1.90;;;13.90;99.90;;;;;;5017872;28;20196;-45
2023/06/27 05:51:00;;;;;;;2.40;1.50;;;14.00;99.90;;;;;;5019431;28;20207;-43
2023/06/27 05:53:27;;;;;;;2.00;1.80;;;14.00;99.90;;;;;;5011509;28;20248;-45
2023/06/27 05:55:54;;;;;;;3.57;2.60;;;14.10;99.90;;;;;;5004830;28;20281;-44
2023/06/27 05:58:22;;;;;;;4.80;2.90;;;14.20;99.90;;;;;;5017003;28;20250;-45
2023/06/27 06:00:49;;;;;;;6.40;3.40;;;14.30;99.90;;;;;;5009428;28;20215;-42
2023/06/27 06:03:15;;;;;;;3.90;2.90;;;14.40;99.90;;;;;;5018364;28;20250;-44
2023/06/27 06:05:42;;;;;;;6.70;3.60;;;14.50;99.90;;;;;;5018345;28;20957;-45
2023/06/27 06:08:09;;;;;;;6.77;3.20;;;14.70;99.90;;;;;;5021949;28;20211;-43
2023/06/27 06:10:36;;;;;;;5.10;3.13;;;14.70;99.90;;;;;;4989370;28;20309;-46
2023/06/27 06:13:02;;;;;;;4.97;2.77;;;14.80;99.90;;;;;;5020586;28;20880;-42
2023/06/27 06:15:31;;;;;;;5.10;2.97;;;14.90;99.90;;;;;;5015865;28;20232;-47
2023/06/27 06:17:57;;;;;;;4.10;2.67;;;14.90;99.90;;;;;;5020294;28;20262;-43
2023/06/27 06:20:24;;;;;;;5.70;2.93;;;15.00;99.90;;;;;;5022495;28;20220;-42
2023/06/27 06:22:51;;;;;;;5.43;2.80;;;15.10;99.90;;;;;;5013412;28;20282;-40
2023/06/27 06:25:18;;;;;;;10.53;2.90;;;15.10;99.90;;;;;;4997029;28;20239;-45
2023/06/27 06:27:44;;;;;;;3.43;1.97;;;15.10;99.90;;;;;;5019083;28;20752;-44
2023/06/27 06:30:12;;;;;;;2.00;1.80;;;15.20;99.90;;;;;;5016318;28;20224;-41
2023/06/27 06:32:40;;;;;;;5.93;2.43;;;15.30;99.90;;;;;;5018781;28;20227;-42
2023/06/27 06:35:08;;;;;;;5.50;2.30;;;15.30;99.90;;;;;;5016621;28;20199;-41
2023/06/27 06:37:35;;;;;;;6.67;2.50;;;15.40;99.90;;;;;;5021034;28;20196;-45
2023/06/27 06:40:01;;;;;;;7.63;2.23;;;15.50;99.90;;;;;;5013927;28;20382;-43
2023/06/27 06:42:28;;;;;;;8.53;2.63;;;15.50;99.90;;;;;;5001277;28;20232;-42
2023/06/27 06:44:55;;;;;;;7.90;2.33;;;15.60;99.90;;;;;;5012148;28;21014;-41
2023/06/27 06:47:22;;;;;;;4.93;1.90;;;15.80;99.90;;;;;;5017187;28;20204;-40
2023/06/27 06:49:50;;;;;;;5.17;2.13;;;15.80;99.90;;;;;;5019118;28;20188;-43
2023/06/27 06:52:17;;;;;;;3.03;1.53;;;15.90;99.90;;;;;;5022120;28;20224;-43
2023/06/27 06:54:44;;;;;;;11.30;1.80;;;15.90;99.90;;;;;;5019053;28;20224;-43
2023/06/27 06:57:11;;;;;;;5.43;2.00;;;16.10;99.90;;;;;;4999956;28;20294;-41
2023/06/27 06:59:37;;;;;;;3.80;1.70;;;16.20;99.90;;;;;;5016046;28;20880;-42
2023/06/27 07:02:05;;;;;;;3.80;1.53;;;16.30;99.90;;;;;;5014453;28;20304;-41
2023/06/27 07:04:32;;;;;;;5.67;1.53;;;16.50;99.90;;;;;;5021277;28;20199;-44
2023/06/27 07:07:00;;;;;;;9.17;2.10;;;16.50;99.90;;;;;;5020705;28;20301;-41
2023/06/27 07:09:28;;;;;;;4.37;1.60;;;16.40;99.90;;;;;;5018959;28;20211;-44
2023/06/27 07:11:55;;;;;;;3.40;1.10;;;16.20;99.90;;;;;;4996276;28;20227;-41
2023/06/27 07:14:22;;;;;;;2.10;1.20;;;15.90;99.90;;;;;;5022361;28;20600;-45
2023/06/27 07:16:48;;;;;;;5.60;1.40;;;15.60;99.90;;;;;;5008299;28;20192;-44
2023/06/27 07:19:15;;;;;;;4.50;1.93;;;15.40;99.90;;;;;;5023049;28;20250;-42
2023/06/27 07:21:42;;;;;;;3.17;1.63;;;15.40;99.90;;;;;;5016794;28;20297;-45
2023/06/27 07:24:11;;;;;;;3.93;1.70;;;15.30;99.90;;;;;;5024679;28;20210;-40
2023/06/27 07:26:38;;;;;;;4.90;2.13;;;15.30;99.90;;;;;;5022846;28;20721;-42
2023/06/27 07:29:05;;;;;;;5.13;2.40;;;15.30;99.90;;;;;;5006473;28;20243;-45
2023/06/27 07:31:32;;;;;;;6.47;2.23;;;15.30;99.90;;;;;;5021884;28;20228;-43
2023/06/27 07:33:59;;;;;;;4.53;2.00;;;15.50;99.90;;;;;;5015375;28;20268;-44
2023/06/27 07:36:26;;;;;;;2.87;1.67;;;15.60;99.90;;;;;;5024873;28;20188;-42
2023/06/27 07:38:53;;;;;;;6.47;2.27;;;15.70;99.90;;;;;;5019942;28;20191;-43
2023/06/27 07:41:21;;;;;;;2.80;1.80;;;15.80;99.90;;;;;;5017838;28;20339;-42
2023/06/27 07:43:48;;;;;;;5.00;2.53;;;15.90;99.90;;;;;;5006642;28;20200;-42
2023/06/27 07:46:15;;;;;;;3.80;1.50;;;16.00;99.90;;;;;;5013370;28;20913;-43
2023/06/27 07:48:42;;;;;;;2.60;1.73;;;16.10;99.90;;;;;;5018598;28;20212;-43
2023/06/27 07:51:08;;;;;;;1.87;1.30;;;16.10;99.90;;;;;;5022064;28;20208;-47
2023/06/27 07:53:36;;;;;;;4.17;1.50;;;16.30;99.90;;;;;;5024844;28;20196;-44
2023/06/27 07:56:03;;;;;;;7.13;1.30;;;16.40;99.90;;;;;;5022790;28;20200;-45
2023/06/27 07:58:31;;;;;;;4.07;1.30;;;16.40;99.90;;;;;;5019037;28;20282;-41
2023/06/27 08:00:57;;;;;;;3.07;1.80;;;16.50;99.90;;;;;;5002458;28;20255;-45
2023/06/27 08:03:25;;;;;;;3.27;1.33;;;16.50;99.90;;;;;;5016630;28;20227;-44
2023/06/27 08:05:54;;;;;;;4.27;1.40;;;16.60;99.90;;;;;;5024923;28;20764;-42
2023/06/27 08:08:20;;;;;;;2.37;1.40;;;16.70;99.90;;;;;;5022506;28;20344;-44
2023/06/27 08:10:47;;;;;;;2.23;1.40;;;16.60;99.90;;;;;;5020334;28;20243;-43
2023/06/27 08:13:14;;;;;;;5.90;1.83;;;16.60;99.90;;;;;;5021016;28;20184;-42
2023/06/27 08:15:42;;;;;;;1.50;1.13;;;16.60;99.90;;;;;;5004741;28;20680;-42
2023/06/27 08:18:09;;;;;;;4.10;1.93;;;16.70;99.90;;;;;;5013738;28;20256;-43
2023/06/27 08:20:36;;;;;;;3.23;1.50;;;16.80;99.90;;;;;;5022251;28;20258;-44
2023/06/27 08:23:03;;;;;;;3.53;1.93;;;16.90;99.90;;;;;;5018235;28;20708;-42
2023/06/27 08:25:29;;;;;;;2.17;1.20;;;17.00;99.90;;;;;;5024036;28;20224;-39
2023/06/27 08:27:56;;;;;;;4.00;1.27;;;17.10;99.90;;;;;;5020530;28;20207;-42
2023/06/27 08:30:23;;;;;;;3.67;1.40;;;17.10;99.90;;;;;;5003382;28;20244;-41
2023/06/27 08:32:51;;;;;;;4.27;1.33;;;17.10;99.90;;;;;;5021007;28;20204;-43
2023/06/27 08:35:18;;;;;;;3.00;1.50;;;17.20;99.90;;;;;;5013859;28;20250;-40
2023/06/27 08:37:45;;;;;;;2.63;1.30;;;17.20;99.90;;;;;;5024897;28;20254;-40
2023/06/27 08:40:20;;;;;;;6.40;1.80;;;17.00;99.90;;;;;;5021483;28;20267;-40
2023/06/27 08:42:47;;;;;;;7.70;2.23;;;16.90;99.90;;;;;;5025281;28;20682;-40
2023/06/27 08:45:14;;;;;;;5.03;1.57;;;16.70;99.90;;;;;;4994793;28;20302;-43
2023/06/27 08:47:43;;;;;;;5.53;1.90;;;16.40;99.90;;;;;;5021779;28;20212;-43
2023/06/27 08:50:14;;;;;;;5.10;2.10;;;16.10;99.90;;;;;;5013640;28;20206;-42
2023/06/27 08:52:44;;;;;;;4.23;1.73;;;15.90;99.90;;;;;;5024297;28;20555;-43
2023/06/27 08:55:18;;;;;;;2.80;2.03;;;15.80;99.90;;;;;;5020998;28;20188;-42
2023/06/27 08:57:47;;;;;;;3.97;1.90;;;15.80;99.90;;;;;;5018864;28;20199;-46
2023/06/27 09:00:21;;;;;;;9.20;4.33;;;15.80;99.90;;;;;;5020784;28;20216;-44
2023/06/27 09:02:50;;;;;;;3.83;2.03;;;15.80;99.90;;;;;;5000949;28;20203;-44
2023/06/27 09:05:18;;;;;;;4.97;1.90;;;15.80;99.90;;;;;;5013912;28;20188;-40
2023/06/27 09:07:46;;;;;;;7.20;2.00;;;15.80;99.90;;;;;;5023200;28;20299;-42
2023/06/27 09:10:15;;;;;;;4.57;2.10;;;15.70;99.90;;;;;;5014379;28;20207;-42
2023/06/27 09:12:43;;;;;;;5.80;2.17;;;15.80;99.90;;;;;;5021428;28;20215;-43
2023/06/27 09:15:11;;;;;;;2.10;1.53;;;15.80;99.90;;;;;;5020318;28;20192;-43
2023/06/27 09:17:38;;;;;;;5.80;2.50;;;15.80;99.90;;;;;;5000886;28;20666;-43
2023/06/27 09:20:07;;;;;;;4.43;2.10;;;16.00;99.90;;;;;;5013992;28;20265;-43
2023/06/27 09:22:35;;;;;;;1.87;1.30;;;16.20;99.90;;;;;;5014597;28;20224;-44
2023/06/27 09:25:14;;;;;;;5.17;1.90;;;16.30;99.90;;;;;;5021143;28;20272;-42
2023/06/27 09:27:41;;;;;;;3.13;1.67;;;16.50;99.90;;;;;;5024293;28;20247;-46
2023/06/27 09:30:10;;;;;;;5.30;1.90;;;16.70;99.90;;;;;;5016290;28;20439;-42
2023/06/27 09:32:52;;;;;;;4.17;2.03;;;16.80;99.90;;;;;;5001376;28;20286;-45
2023/06/27 09:35:20;;;;;;;4.37;1.80;;;16.90;99.90;;;;;;5012403;28;20208;-43
2023/06/27 09:37:48;;;;;;;4.23;1.40;;;17.00;99.90;;;;;;5023804;28;20558;-45
2023/06/27 09:40:19;;;;;;;3.77;1.50;;;17.20;99.90;;;;;;5020370;28;20474;-43
2023/06/27 09:42:53;;;;;;;4.87;1.37;;;17.30;99.90;;;;;;5023348;28;20748;-43
2023/06/27 09:45:21;;;;;;;3.57;1.17;;;17.30;99.90;;;;;;5010104;28;20191;-42
2023/06/27 09:47:50;;;;;;;4.00;1.20;;;17.30;99.90;;;;;;5022657;28;20243;-45
2023/06/27 09:50:17;;;;;;;3.07;1.53;;;17.30;99.90;;;;;;4999771;28;20259;-42
2023/06/27 09:52:52;;;;;;;8.67;1.40;;;17.40;99.90;;;;;;5022822;28;20769;-47
2023/06/27 09:55:20;;;;;;;3.17;1.00;;;17.50;99.90;;;;;;5020388;28;20200;-42
2023/06/27 09:57:48;;;;;;;2.10;0.87;;;17.60;99.90;;;;;;5017623;28;20273;-43
2023/06/27 10:00:18;;;;;;;4.83;1.20;;;17.60;99.90;;;;;;5018390;28;20273;-42
2023/06/27 10:02:48;;;;;;;6.27;1.40;;;17.70;99.90;;;;;;5023164;28;20195;-46
2023/06/27 10:05:15;;;;;;;3.03;0.83;;;17.90;99.90;;;;;;4998084;28;20211;-47
2023/06/27 10:07:43;;;;;;;4.87;0.90;;;18.00;99.90;;;;;;5015900;28;20247;-43
2023/06/27 10:10:12;;;;;;;3.47;1.30;;;18.10;99.90;;;;;;5014334;28;20212;-44
2023/06/27 10:12:39;;;;;;;4.40;1.17;;;18.10;99.90;;;;;;5023527;28;20872;-44
2023/06/27 10:15:08;;;;;;;5.33;0.90;;;18.00;99.90;;;;;;5019955;28;20214;-41
2023/06/27 10:17:36;;;;;;;4.37;1.07;;;17.70;99.90;;;;;;5022713;28;20227;-44
2023/06/27 10:20:04;;;;;;;5.20;1.23;;;17.50;99.90;;;;;;4999776;28;20285;-41
2023/06/27 10:22:34;;;;;;;5.50;1.53;;;17.60;99.90;;;;;;5011140;28;20760;-48
2023/06/27 10:25:05;;;;;;;5.47;1.00;;;17.60;99.90;;;;;;5020137;28;20258;-42
2023/06/27 10:27:36;;;;;;;2.63;1.10;;;17.70;99.90;;;;;;5023022;28;20223;-43
2023/06/27 10:30:13;;;;;;;3.00;0.97;;;17.80;99.90;;;;;;5018739;28;20265;-41
2023/06/27 10:32:43;;;;;;;4.37;1.00;;;18.00;99.90;;;;;;5018323;28;21324;-44
2023/06/27 10:35:12;;;;;;;4.33;1.23;;;18.10;99.90;;;;;;4996975;28;20928;-43
2023/06/27 10:37:42;;;;;;;4.00;0.90;;;18.30;99.90;;;;;;5015127;28;20202;-42
2023/06/27 10:40:10;;;;;;;2.77;1.10;;;18.40;99.90;;;;;;5017786;28;20192;-42
2023/06/27 10:42:41;;;;;;;1.73;1.00;;;18.60;99.90;;;;;;5023117;28;20618;-44
2023/06/27 10:45:10;;;;;;;4.13;0.80;;;18.70;99.90;;;;;;5013387;28;20285;-44
2023/06/27 10:47:41;;;;;;;1.50;0.73;;;18.70;99.90;;;;;;5022321;28;20411;-45
2023/06/27 10:50:10;;;;;;;4.53;1.00;;;18.70;99.90;;;;;;4999984;28;20208;-41
2023/06/27 10:52:38;;;;;;;5.17;1.40;;;18.70;99.90;;;;;;5015619;28;20724;-45
2023/06/27 10:55:21;;;;;;;6.43;1.00;;;18.70;99.90;;;;;;5022044;28;20223;-42
2023/06/27 10:58:02;;;;;;;3.87;1.03;;;18.90;99.90;;;;;;5021437;28;20211;-43
2023/06/27 11:00:32;;;;;;;3.47;0.80;;;19.00;99.90;;;;;;5026222;28;20677;-42
2023/06/27 11:03:02;;;;;;;4.23;1.30;;;19.10;99.90;;;;;;5024562;28;20203;-43
2023/06/27 11:05:46;;;;;;;2.90;1.10;;;19.10;99.90;;;;;;5006191;28;20246;-42
2023/06/27 11:08:15;;;;;;;3.63;0.97;;;19.00;99.90;;;;;;5012561;28;20305;-42
2023/06/27 11:11:10;;;;;;;4.77;0.97;;;19.00;99.90;;;;;;5024290;28;20230;-44
2023/06/27 11:13:43;;;;;;;3.97;1.63;;;19.10;99.90;;;;;;4993503;28;20207;-42
2023/06/27 11:16:11;;;;;;;4.20;1.03;;;19.20;99.90;;;;;;5020221;28;20902;-43
2023/06/27 11:18:38;;;;;;;3.13;1.10;;;19.40;99.90;;;;;;5026445;28;20196;-41
2023/06/27 11:21:05;;;;;;;4.00;1.30;;;19.50;99.90;;;;;;5000594;28;20219;-42
2023/06/27 11:23:34;;;;;;;2.57;1.20;;;19.70;99.90;;;;;;5019271;28;20207;-41
2023/06/27 11:26:00;;;;;;;2.00;0.70;;;19.70;99.90;;;;;;5023770;28;20525;-45
2023/06/27 11:28:27;;;;;;;4.33;0.70;;;19.80;99.90;;;;;;5025273;28;20243;-41
2023/06/27 11:31:00;;;;;;;5.77;1.20;;;19.70;99.90;;;;;;5025460;28;20313;-41
2023/06/27 11:33:27;;;;;;;4.27;0.83;;;19.70;99.90;;;;;;5019124;28;20227;-41
2023/06/27 11:35:58;;;;;;;3.07;0.80;;;19.90;99.90;;;;;;5024992;28;20685;-41
2023/06/27 11:38:24;;;;;;;3.93;0.80;;;20.00;99.90;;;;;;5005526;28;20860;-41
2023/06/27 11:40:51;;;;;;;3.47;1.00;;;20.00;99.90;;;;;;5019082;28;20253;-41
2023/06/27 11:43:19;;;;;;;3.13;1.13;;;19.80;99.90;;;;;;5022466;28;20287;-44
2023/06/27 11:45:46;;;;;;;2.00;0.80;;;19.50;99.90;;;;;;5021311;28;20203;-41
2023/06/27 11:48:15;;;;;;;3.40;1.00;;;19.50;99.90;;;;;;5021860;28;20981;-42
2023/06/27 11:50:58;;;;;;;3.47;0.90;;;19.50;99.90;;;;;;5026239;28;20231;-42
2023/06/27 11:53:26;;;;;;;5.23;1.00;;;19.70;99.90;;;;;;5003667;28;20200;-41
2023/06/27 11:55:54;;;;;;;4.20;1.20;;;19.80;99.90;;;;;;5015669;28;20203;-44
2023/06/27 11:58:31;;;;;;;3.47;1.10;;;19.90;99.90;;;;;;5020726;28;20216;-42
2023/06/27 12:00:59;;;;;;;4.87;1.40;;;19.90;99.90;;;;;;5024273;28;20220;-44
2023/06/27 12:03:28;;;;;;;5.70;1.40;;;19.90;99.90;;;;;;5024082;28;20192;-43
2023/06/27 12:05:57;;;;;;;5.17;1.30;;;20.00;99.90;;;;;;5023606;28;20570;-41
2023/06/27 12:08:30;;;;;;;4.33;0.97;;;20.30;99.90;;;;;;5000971;28;20216;-42
2023/06/27 12:11:00;;;;;;;6.67;1.60;;;20.30;99.90;;;;;;5011057;28;20646;-41
2023/06/27 12:13:31;;;;;;;2.40;1.10;;;20.20;99.90;;;;;;5024723;28;20479;-42
2023/06/27 12:15:58;;;;;;;4.20;1.20;;;20.10;99.90;;;;;;5023964;28;20203;-42
2023/06/27 12:18:28;;;;;;;4.73;1.40;;;20.10;99.90;;;;;;5023535;28;20180;-46
2023/06/27 12:20:56;;;;;;;1.57;0.80;;;19.90;99.90;;;;;;5012525;28;20251;-41
2023/06/27 12:23:23;;;;;;;1.77;0.73;;;19.50;99.90;;;;;;5005298;28;22081;-41
2023/06/27 12:25:50;;;;;;;1.37;0.60;;;19.10;99.90;;;;;;5018373;28;20204;-41
2023/06/27 12:28:16;;;;;;;2.80;1.03;;;18.60;99.90;;;;;;5022227;28;20301;-42
2023/06/27 12:30:44;;;;;;;2.80;1.20;;;18.50;99.90;;;;;;5021516;28;20231;-44
2023/06/27 12:33:11;;;;;;;2.70;0.70;;;18.20;99.90;;;;;;5014577;28;20188;-40
2023/06/27 12:35:39;;;;;;;1.47;0.60;;;18.00;99.90;;;;;;5018201;28;20207;-42
2023/06/27 12:38:06;;;;;;;2.20;0.87;;;18.10;99.90;;;;;;5021298;28;20943;-43
2023/06/27 12:40:33;;;;;;;2.03;0.87;;;18.00;99.90;;;;;;5005721;28;20227;-43
2023/06/27 12:43:00;;;;;;;2.33;0.80;;;18.10;99.90;;;;;;5014424;28;20251;-40
2023/06/27 12:45:30;;;;;;;2.43;0.90;;;18.10;99.90;;;;;;5019000;28;20275;-42
2023/06/27 12:47:57;;;;;;;2.20;0.73;;;18.30;99.90;;;;;;5021101;28;20223;-40
2023/06/27 12:50:24;;;;;;;3.13;0.80;;;18.30;99.90;;;;;;5024868;28;20313;-42
2023/06/27 12:52:52;;;;;;;4.13;0.70;;;18.60;99.90;;;;;;5017823;28;20258;-44